createdAt,value
2023-03-16T00:00:57.278Z,-2.04
2023-03-16T00:03:24.323Z,-2.10
2023-03-16T00:05:53.189Z,-2.19
2023-03-16T00:08:23.338Z,-2.21
2023-03-16T00:10:50.477Z,-2.23
2023-03-16T00:13:19.139Z,-2.23
2023-03-16T00:15:57.487Z,-2.23
2023-03-16T00:18:33.010Z,-2.26
2023-03-16T00:21:06.496Z,-2.36
2023-03-16T00:23:35.943Z,-2.42
2023-03-16T00:26:05.539Z,-2.42
2023-03-16T00:28:35.311Z,-2.39
2023-03-16T00:31:07.408Z,-2.43
2023-03-16T00:33:37.396Z,-2.44
2023-03-16T00:36:11.257Z,-2.45
2023-03-16T00:38:45.639Z,-2.42
2023-03-16T00:41:14.608Z,-2.39
2023-03-16T00:43:45.520Z,-2.43
2023-03-16T00:46:15.670Z,-2.40
2023-03-16T00:48:48.031Z,-2.41
2023-03-16T00:51:20.432Z,-2.37
2023-03-16T00:53:49.482Z,-2.40
2023-03-16T00:56:19.718Z,-2.42
2023-03-16T00:58:49.397Z,-2.44
2023-03-16T01:01:19.138Z,-2.46
2023-03-16T01:03:48.821Z,-2.43
2023-03-16T01:06:26.868Z,-2.46
2023-03-16T01:08:59.837Z,-2.55
2023-03-16T01:11:29.795Z,-2.59
2023-03-16T01:14:02.225Z,-2.60
2023-03-16T01:16:34.943Z,-2.61
2023-03-16T01:19:01.783Z,-2.67
2023-03-16T01:21:29.336Z,-2.70
2023-03-16T01:24:01.762Z,-2.72
2023-03-16T01:26:28.376Z,-2.77
2023-03-16T01:28:55.082Z,-2.77
2023-03-16T01:31:22.662Z,-2.81
2023-03-16T01:33:55.646Z,-2.83
2023-03-16T01:36:22.548Z,-2.84
2023-03-16T01:38:52.471Z,-2.82
2023-03-16T01:41:19.729Z,-2.84
2023-03-16T01:43:47.465Z,-2.90
2023-03-16T01:46:30.449Z,-2.92
2023-03-16T01:49:25.298Z,-2.98
2023-03-16T01:52:03.787Z,-3.03
2023-03-16T01:54:32.225Z,-3.05
2023-03-16T01:57:18.368Z,-3.02
2023-03-16T01:59:53.110Z,-3.05
2023-03-16T02:02:24.108Z,-3.06
2023-03-16T02:05:07.233Z,-3.05
2023-03-16T02:07:43.060Z,-3.05
2023-03-16T02:10:18.548Z,-3.02
2023-03-16T02:12:55.985Z,-2.99
2023-03-16T02:15:23.180Z,-3.01
2023-03-16T02:17:50.555Z,-3.08
2023-03-16T02:20:29.243Z,-3.09
2023-03-16T02:22:56.387Z,-3.10
2023-03-16T02:25:29.315Z,-3.10
2023-03-16T02:28:29.661Z,-3.12
2023-03-16T02:30:57.114Z,-3.16
2023-03-16T02:33:29.418Z,-3.16
2023-03-16T02:36:00.566Z,-3.20
2023-03-16T02:38:31.069Z,-3.24
2023-03-16T02:41:01.761Z,-3.27
2023-03-16T02:43:40.713Z,-3.29
2023-03-16T02:46:11.390Z,-3.29
2023-03-16T02:49:01.289Z,-3.27
2023-03-16T02:51:32.434Z,-3.32
2023-03-16T02:54:02.044Z,-3.34
2023-03-16T02:56:28.983Z,-3.35
2023-03-16T02:58:59.321Z,-3.38
2023-03-16T03:01:26.462Z,-3.40
2023-03-16T03:03:59.085Z,-3.39
2023-03-16T03:06:32.761Z,-3.40
2023-03-16T03:09:06.662Z,-3.42
2023-03-16T03:11:34.010Z,-3.44
2023-03-16T03:14:02.772Z,-3.44
2023-03-16T03:16:33.290Z,-3.44
2023-03-16T03:19:03.427Z,-3.47
2023-03-16T03:21:30.179Z,-3.49
2023-03-16T03:24:04.391Z,-3.53
2023-03-16T03:26:35.214Z,-3.56
2023-03-16T03:29:02.525Z,-3.59
2023-03-16T03:31:30.175Z,-3.59
2023-03-16T03:34:02.872Z,-3.60
2023-03-16T03:36:35.119Z,-3.66
2023-03-16T03:39:08.737Z,-3.69
2023-03-16T03:41:37.148Z,-3.67
2023-03-16T03:44:07.687Z,-3.65
2023-03-16T03:46:40.140Z,-3.66
2023-03-16T03:49:06.998Z,-3.63
2023-03-16T03:51:37.010Z,-3.64
2023-03-16T03:54:04.229Z,-3.66
2023-03-16T03:56:35.181Z,-3.66
2023-03-16T03:59:10.542Z,-3.68
2023-03-16T04:01:37.134Z,-3.71
2023-03-16T04:04:07.032Z,-3.68
2023-03-16T04:06:35.143Z,-3.71
2023-03-16T04:09:02.456Z,-3.71
2023-03-16T04:11:29.196Z,-3.69
2023-03-16T04:14:01.999Z,-3.72
2023-03-16T04:16:28.655Z,-3.71
2023-03-16T04:18:55.460Z,-3.78
2023-03-16T04:21:24.021Z,-3.76
2023-03-16T04:23:54.540Z,-3.72
2023-03-16T04:26:28.478Z,-3.76
2023-03-16T04:28:56.148Z,-3.74
2023-03-16T04:31:25.685Z,-3.73
2023-03-16T04:33:56.399Z,-3.76
2023-03-16T04:36:26.544Z,-3.76
2023-03-16T04:39:02.717Z,-3.76
2023-03-16T04:41:29.331Z,-3.79
2023-03-16T04:44:00.573Z,-3.78
2023-03-16T04:46:31.759Z,-3.78
2023-03-16T04:48:58.726Z,-3.67
2023-03-16T04:51:27.086Z,-3.65
2023-03-16T04:54:00.075Z,-3.77
2023-03-16T04:56:30.373Z,-3.79
2023-03-16T04:59:05.810Z,-3.84
2023-03-16T05:01:33.635Z,-3.85
2023-03-16T05:04:00.327Z,-3.89
2023-03-16T05:06:30.538Z,-3.96
2023-03-16T05:09:01.040Z,-3.96
2023-03-16T05:11:35.469Z,-3.91
2023-03-16T05:14:06.214Z,-3.91
2023-03-16T05:16:33.396Z,-3.93
2023-03-16T05:19:04.436Z,-3.92
2023-03-16T05:21:32.652Z,-3.85
2023-03-16T05:23:59.819Z,-3.89
2023-03-16T05:26:33.207Z,-3.90
2023-03-16T05:29:03.351Z,-3.88
2023-03-16T05:31:34.279Z,-3.91
2023-03-16T05:34:06.829Z,-3.93
2023-03-16T05:36:36.015Z,-3.94
2023-03-16T05:39:05.901Z,-3.93
2023-03-16T05:41:36.533Z,-3.96
2023-03-16T05:44:04.740Z,-3.88
2023-03-16T05:46:40.272Z,-3.87
2023-03-16T05:49:06.996Z,-3.85
2023-03-16T05:51:42.084Z,-3.82
2023-03-16T05:54:08.806Z,-3.79
2023-03-16T05:56:35.477Z,-3.73
2023-03-16T05:59:07.297Z,-3.70
2023-03-16T06:01:38.635Z,-3.64
2023-03-16T06:04:05.565Z,-3.57
2023-03-16T06:06:32.307Z,-3.50
2023-03-16T06:08:59.050Z,-3.49
2023-03-16T06:11:25.736Z,-3.42
2023-03-16T06:14:00.675Z,-3.36
2023-03-16T06:16:37.050Z,-3.24
2023-03-16T06:19:03.767Z,-3.09
2023-03-16T06:21:30.435Z,-3.02
2023-03-16T06:23:57.067Z,-2.90
2023-03-16T06:26:23.850Z,-2.81
2023-03-16T06:28:50.548Z,-2.71
2023-03-16T06:31:20.488Z,-2.50
2023-03-16T06:33:47.285Z,-2.38
2023-03-16T06:36:15.113Z,-2.24
2023-03-16T06:38:41.763Z,-2.19
2023-03-16T06:41:08.621Z,-2.11
2023-03-16T06:43:35.441Z,-2.05
2023-03-16T06:46:03.477Z,-1.99
2023-03-16T06:48:30.245Z,-1.92
2023-03-16T06:50:56.930Z,-1.82
2023-03-16T06:53:26.976Z,-1.70
2023-03-16T06:55:53.584Z,-1.60
2023-03-16T06:58:20.389Z,-1.52
2023-03-16T07:00:47.353Z,-1.43
2023-03-16T07:03:14.094Z,-1.31
2023-03-16T07:05:40.724Z,-1.24
2023-03-16T07:08:07.336Z,-1.16
2023-03-16T07:10:36.845Z,-1.00
2023-03-16T07:13:04.351Z,-0.85
2023-03-16T07:15:31.433Z,-0.64
2023-03-16T07:17:58.079Z,-0.40
2023-03-16T07:20:25.457Z,-0.19
2023-03-16T07:22:54.779Z,-0.04
2023-03-16T07:25:21.514Z,0.28
2023-03-16T07:27:48.368Z,0.71
2023-03-16T07:30:23.723Z,1.10
2023-03-16T07:32:50.366Z,1.50
2023-03-16T07:35:20.260Z,1.75
2023-03-16T07:37:46.898Z,2.05
2023-03-16T07:40:14.481Z,1.98
2023-03-16T07:42:44.262Z,2.28
2023-03-16T07:45:12.819Z,2.87
2023-03-16T07:47:41.963Z,3.55
2023-03-16T07:50:10.303Z,3.23
2023-03-16T07:52:37.621Z,3.44
2023-03-16T07:55:05.536Z,3.91
2023-03-16T07:57:32.682Z,4.11
2023-03-16T07:59:59.438Z,4.66
2023-03-16T08:02:26.202Z,5.24
2023-03-16T08:04:52.827Z,4.62
2023-03-16T08:07:25.655Z,5.05
2023-03-16T08:09:52.676Z,5.34
2023-03-16T08:12:19.522Z,5.84
2023-03-16T08:14:47.390Z,5.49
2023-03-16T08:17:14.050Z,5.02
2023-03-16T08:19:40.950Z,4.44
2023-03-16T08:22:10.747Z,4.96
2023-03-16T08:24:37.547Z,5.14
2023-03-16T08:27:04.707Z,5.07
2023-03-16T08:29:38.194Z,5.64
2023-03-16T08:32:07.722Z,5.84
2023-03-16T08:34:39.250Z,5.52
2023-03-16T08:37:06.814Z,5.93
2023-03-16T08:39:37.151Z,6.04
2023-03-16T08:42:08.444Z,6.94
2023-03-16T08:44:38.396Z,6.36
2023-03-16T08:47:05.271Z,6.60
2023-03-16T08:49:31.988Z,6.22
2023-03-16T08:52:00.772Z,6.30
2023-03-16T08:54:27.562Z,6.81
2023-03-16T08:56:54.185Z,6.61
2023-03-16T08:59:29.743Z,6.73
2023-03-16T09:01:57.055Z,7.21
2023-03-16T09:04:23.868Z,6.90
2023-03-16T09:07:09.853Z,6.45
2023-03-16T09:09:40.478Z,6.81
2023-03-16T09:12:07.439Z,6.87
2023-03-16T09:14:37.990Z,6.97
2023-03-16T09:17:11.901Z,6.96
2023-03-16T09:19:57.762Z,7.15
2023-03-16T09:22:25.830Z,7.67
2023-03-16T09:24:58.284Z,8.24
2023-03-16T09:27:25.464Z,8.08
2023-03-16T09:29:55.820Z,8.09
2023-03-16T09:32:22.897Z,8.64
2023-03-16T09:34:49.629Z,8.32
2023-03-16T09:37:16.442Z,8.86
2023-03-16T09:39:47.416Z,8.97
2023-03-16T09:42:41.072Z,9.29
2023-03-16T09:45:26.698Z,10.03
2023-03-16T09:47:57.990Z,9.08
2023-03-16T09:50:47.383Z,9.30
2023-03-16T09:53:33.300Z,10.07
2023-03-16T09:56:11.470Z,9.89
2023-03-16T09:58:38.567Z,10.22
2023-03-16T10:01:51.551Z,9.13
2023-03-16T10:04:28.007Z,8.76
2023-03-16T10:07:24.020Z,9.12
2023-03-16T10:10:18.500Z,8.83
2023-03-16T10:12:52.679Z,8.40
2023-03-16T10:15:23.913Z,8.84
2023-03-16T10:17:58.582Z,9.13
2023-03-16T10:20:28.269Z,9.26
2023-03-16T10:23:02.243Z,8.65
2023-03-16T10:25:47.280Z,8.90
2023-03-16T10:28:27.212Z,9.32
2023-03-16T10:30:56.779Z,9.50
2023-03-16T10:33:30.305Z,9.04
2023-03-16T10:36:04.276Z,9.16
2023-03-16T10:38:38.766Z,9.55
2023-03-16T10:41:23.282Z,9.11
2023-03-16T10:44:12.396Z,9.44
2023-03-16T10:47:05.997Z,9.15
2023-03-16T10:49:42.290Z,9.05
2023-03-16T10:52:37.000Z,8.48
2023-03-16T10:55:17.079Z,8.66
2023-03-16T10:57:50.266Z,8.52
2023-03-16T11:00:29.041Z,9.12
2023-03-16T11:02:59.884Z,8.54
2023-03-16T11:05:32.335Z,8.89
2023-03-16T11:08:09.709Z,9.29
2023-03-16T11:10:49.392Z,9.43
2023-03-16T11:13:22.756Z,9.38
2023-03-16T11:15:57.522Z,9.66
2023-03-16T11:18:39.215Z,9.20
2023-03-16T11:21:17.423Z,8.90
2023-03-16T11:23:56.665Z,8.74
2023-03-16T11:26:34.968Z,9.06
2023-03-16T11:29:18.881Z,9.38
2023-03-16T11:31:57.935Z,9.35
2023-03-16T11:34:29.057Z,8.95
2023-03-16T11:37:02.218Z,8.96
2023-03-16T11:39:44.404Z,9.28
2023-03-16T11:42:33.329Z,9.00
2023-03-16T11:45:11.359Z,9.15
2023-03-16T11:48:03.664Z,9.25
2023-03-16T11:50:51.695Z,9.14
2023-03-16T11:53:25.888Z,9.03
2023-03-16T11:56:24.072Z,9.35
2023-03-16T11:59:09.186Z,9.11
2023-03-16T12:02:00.223Z,9.63
2023-03-16T12:05:26.219Z,9.86
2023-03-16T12:07:58.533Z,10.47
2023-03-16T12:10:47.521Z,10.31
2023-03-16T12:13:40.137Z,9.88
2023-03-16T12:16:13.507Z,9.35
2023-03-16T12:18:49.824Z,9.57
2023-03-16T12:21:26.219Z,9.90
2023-03-16T12:23:56.622Z,10.24
2023-03-16T12:26:30.434Z,10.11
2023-03-16T12:29:04.621Z,9.82
2023-03-16T12:31:47.620Z,9.61
2023-03-16T12:34:35.878Z,10.27
2023-03-16T12:37:36.316Z,10.52
2023-03-16T12:40:12.177Z,10.88
2023-03-16T12:42:50.707Z,11.08
2023-03-16T12:45:36.108Z,12.01
2023-03-16T12:48:25.036Z,12.14
2023-03-16T12:50:58.903Z,12.65
2023-03-16T12:53:27.180Z,13.35
2023-03-16T12:55:57.337Z,13.61
2023-03-16T12:58:26.227Z,12.85
2023-03-16T13:00:58.757Z,12.27
2023-03-16T13:03:26.784Z,11.45
2023-03-16T13:06:00.844Z,12.12
2023-03-16T13:08:29.119Z,11.72
2023-03-16T13:11:10.724Z,11.86
2023-03-16T13:14:01.899Z,12.63
2023-03-16T13:16:32.400Z,12.68
2023-03-16T13:18:59.298Z,12.05
2023-03-16T13:21:45.001Z,11.25
2023-03-16T13:24:19.670Z,11.20
2023-03-16T13:26:47.520Z,11.50
2023-03-16T13:29:29.507Z,11.90
2023-03-16T13:32:16.108Z,12.74
2023-03-16T13:34:56.606Z,12.10
2023-03-16T13:37:24.449Z,11.26
2023-03-16T13:39:59.968Z,11.13
2023-03-16T13:42:31.559Z,10.73
2023-03-16T13:44:59.678Z,10.84
2023-03-16T13:47:28.239Z,10.33
2023-03-16T13:49:59.637Z,10.07
2023-03-16T13:52:31.364Z,10.25
2023-03-16T13:54:59.736Z,10.01
2023-03-16T13:57:29.701Z,9.98
2023-03-16T14:00:27.735Z,9.78
2023-03-16T14:03:03.301Z,9.61
2023-03-16T14:05:36.112Z,9.53
2023-03-16T14:08:05.123Z,9.44
2023-03-16T14:10:34.686Z,9.49
2023-03-16T14:13:38.430Z,9.48
2023-03-16T14:16:18.897Z,9.36
2023-03-16T14:18:57.764Z,9.30
2023-03-16T14:21:34.241Z,9.38
2023-03-16T14:24:07.522Z,9.35
2023-03-16T14:26:47.882Z,9.34
2023-03-16T14:29:28.372Z,9.20
2023-03-16T14:31:55.693Z,9.10
2023-03-16T14:34:50.119Z,9.06
2023-03-16T14:37:35.679Z,9.04
2023-03-16T14:40:06.160Z,9.05
2023-03-16T14:42:35.997Z,9.09
2023-03-16T14:45:07.857Z,9.09
2023-03-16T14:47:42.759Z,9.00
2023-03-16T14:50:25.338Z,8.98
2023-03-16T14:52:59.365Z,8.90
2023-03-16T14:55:26.096Z,8.91
2023-03-16T14:57:53.360Z,8.79
2023-03-16T15:00:22.123Z,8.80
2023-03-16T15:03:14.222Z,8.84
2023-03-16T15:05:42.916Z,8.89
2023-03-16T15:08:46.304Z,8.85
2023-03-16T15:11:15.480Z,8.93
2023-03-16T15:13:42.117Z,9.05
2023-03-16T15:16:14.084Z,8.86
2023-03-16T15:19:25.483Z,8.69
2023-03-16T15:21:52.230Z,8.66
2023-03-16T15:24:18.933Z,8.57
2023-03-16T15:26:45.577Z,8.56
2023-03-16T15:29:13.486Z,8.53
2023-03-16T15:31:40.244Z,8.55
2023-03-16T15:34:07.291Z,8.54
2023-03-16T15:36:34.011Z,8.43
2023-03-16T15:39:02.144Z,8.50
2023-03-16T15:41:38.138Z,8.52
2023-03-16T15:44:13.114Z,8.64
2023-03-16T15:46:39.954Z,8.73
2023-03-16T15:49:06.651Z,8.66
2023-03-16T15:51:33.663Z,8.51
2023-03-16T15:54:08.926Z,8.65
2023-03-16T15:56:54.337Z,8.76
2023-03-16T15:59:25.723Z,8.74
2023-03-16T16:01:54.832Z,8.63
2023-03-16T16:04:23.628Z,8.79
2023-03-16T16:07:02.226Z,8.99
2023-03-16T16:09:29.229Z,9.88
2023-03-16T16:11:56.413Z,10.33
2023-03-16T16:14:25.617Z,9.70
2023-03-16T16:16:54.441Z,9.27
2023-03-16T16:19:21.690Z,9.00
2023-03-16T16:21:48.912Z,8.79
2023-03-16T16:24:20.806Z,8.55
2023-03-16T16:26:55.327Z,8.19
2023-03-16T16:29:24.919Z,8.01
2023-03-16T16:31:52.473Z,7.68
2023-03-16T16:34:24.045Z,7.41
2023-03-16T16:36:50.952Z,7.13
2023-03-16T16:39:20.540Z,6.88
2023-03-16T16:41:49.348Z,6.70
2023-03-16T16:44:26.065Z,6.62
2023-03-16T16:46:53.822Z,6.48
2023-03-16T16:49:26.301Z,6.44
2023-03-16T16:51:53.719Z,6.40
2023-03-16T16:54:29.392Z,6.35
2023-03-16T16:56:58.608Z,6.25
2023-03-16T16:59:29.076Z,6.03
2023-03-16T17:02:00.458Z,5.85
2023-03-16T17:04:29.158Z,5.55
2023-03-16T17:07:02.154Z,5.49
2023-03-16T17:09:33.072Z,5.18
2023-03-16T17:12:01.577Z,5.09
2023-03-16T17:14:28.650Z,5.04
2023-03-16T17:16:57.102Z,4.92
2023-03-16T17:19:28.717Z,4.82
2023-03-16T17:21:57.628Z,4.72
2023-03-16T17:24:24.673Z,4.57
2023-03-16T17:26:54.102Z,4.42
2023-03-16T17:29:31.607Z,4.28
2023-03-16T17:32:03.513Z,4.29
2023-03-16T17:34:33.473Z,4.14
2023-03-16T17:37:01.949Z,4.04
2023-03-16T17:39:31.276Z,3.96
2023-03-16T17:42:02.980Z,3.78
2023-03-16T17:44:35.054Z,3.70
2023-03-16T17:47:01.812Z,3.59
2023-03-16T17:49:31.435Z,3.50
2023-03-16T17:51:58.143Z,3.49
2023-03-16T17:54:24.811Z,3.49
2023-03-16T17:57:00.551Z,3.49
2023-03-16T17:59:36.282Z,3.43
2023-03-16T18:02:03.066Z,3.37
2023-03-16T18:04:29.858Z,3.41
2023-03-16T18:06:56.735Z,3.39
2023-03-16T18:09:23.431Z,3.48
2023-03-16T18:11:51.371Z,3.47
2023-03-16T18:14:37.536Z,3.49
2023-03-16T18:17:15.766Z,3.53
2023-03-16T18:19:43.610Z,3.59
2023-03-16T18:22:21.966Z,3.56
2023-03-16T18:24:53.125Z,3.59
2023-03-16T18:27:20.391Z,3.68
2023-03-16T18:29:48.293Z,3.72
2023-03-16T18:32:27.465Z,3.80
2023-03-16T18:34:54.871Z,3.89
2023-03-16T18:37:30.540Z,3.97
2023-03-16T18:39:57.357Z,4.04
2023-03-16T18:42:27.702Z,4.13
2023-03-16T18:44:54.416Z,4.15
2023-03-16T18:47:24.084Z,4.23
2023-03-16T18:49:54.091Z,4.35
2023-03-16T18:52:30.721Z,4.41
2023-03-16T18:54:58.417Z,4.37
2023-03-16T18:57:26.506Z,4.46
2023-03-16T18:59:56.396Z,4.48
2023-03-16T19:02:31.391Z,4.52
2023-03-16T19:05:00.664Z,4.59
2023-03-16T19:07:37.865Z,4.63
2023-03-16T19:10:29.506Z,4.68
2023-03-16T19:12:56.357Z,4.70
2023-03-16T19:15:34.031Z,4.70
2023-03-16T19:18:00.784Z,4.65
2023-03-16T19:20:29.991Z,4.73
2023-03-16T19:23:05.980Z,4.78
2023-03-16T19:25:36.641Z,4.81
2023-03-16T19:28:08.931Z,4.82
2023-03-16T19:30:44.852Z,4.81
2023-03-16T19:33:18.959Z,4.68
2023-03-16T19:35:51.979Z,4.78
2023-03-16T19:38:26.386Z,4.70
2023-03-16T19:40:59.058Z,4.61
2023-03-16T19:43:27.757Z,4.61
2023-03-16T19:45:56.626Z,4.57
2023-03-16T19:48:33.396Z,4.53
2023-03-16T19:51:01.021Z,4.42
2023-03-16T19:53:27.683Z,4.37
2023-03-16T19:55:54.600Z,4.39
2023-03-16T19:58:34.970Z,4.41
2023-03-16T20:01:02.292Z,4.39
2023-03-16T20:03:33.291Z,4.41
2023-03-16T20:05:59.945Z,4.41
2023-03-16T20:08:29.120Z,4.37
2023-03-16T20:11:07.549Z,4.33
2023-03-16T20:13:40.529Z,4.22
2023-03-16T20:16:08.250Z,4.22
2023-03-16T20:18:34.763Z,4.27
2023-03-16T20:21:02.159Z,4.27
2023-03-16T20:23:30.688Z,4.40
2023-03-16T20:26:02.020Z,4.50
2023-03-16T20:28:37.098Z,4.47
2023-03-16T20:31:08.329Z,4.47
2023-03-16T20:33:35.166Z,4.53
2023-03-16T20:36:02.860Z,4.50
2023-03-16T20:38:29.416Z,4.49
2023-03-16T20:40:56.759Z,4.49
2023-03-16T20:43:23.808Z,4.60
2023-03-16T20:45:52.841Z,4.60
2023-03-16T20:48:19.586Z,4.56
2023-03-16T20:50:46.364Z,4.59
2023-03-16T20:53:13.063Z,4.52
2023-03-16T20:55:39.951Z,4.55
2023-03-16T20:58:25.584Z,4.52
2023-03-16T21:00:57.873Z,4.52
2023-03-16T21:03:33.778Z,4.50
2023-03-16T21:06:00.629Z,4.50
2023-03-16T21:08:27.524Z,4.47
2023-03-16T21:11:03.474Z,4.48
2023-03-16T21:13:32.598Z,4.50
2023-03-16T21:16:01.850Z,4.56
2023-03-16T21:18:29.568Z,4.58
2023-03-16T21:20:56.417Z,4.55
2023-03-16T21:23:27.346Z,4.62
2023-03-16T21:26:01.556Z,4.72
2023-03-16T21:28:31.861Z,4.77
2023-03-16T21:30:59.221Z,4.71
2023-03-16T21:33:56.921Z,4.72
2023-03-16T21:36:31.459Z,4.78
2023-03-16T21:38:58.078Z,4.71
2023-03-16T21:41:24.809Z,4.69
2023-03-16T21:43:54.579Z,4.69
2023-03-16T21:46:23.442Z,4.68
2023-03-16T21:48:58.396Z,4.59
2023-03-16T21:51:31.490Z,4.52
2023-03-16T21:53:58.231Z,4.45
2023-03-16T21:56:26.262Z,4.44
2023-03-16T21:58:54.437Z,4.45
2023-03-16T22:01:27.997Z,4.29
2023-03-16T22:04:02.835Z,4.30
2023-03-16T22:06:30.105Z,4.27
2023-03-16T22:09:02.234Z,4.30
2023-03-16T22:11:30.844Z,4.34
2023-03-16T22:13:59.223Z,4.33
2023-03-16T22:16:28.867Z,4.34
2023-03-16T22:18:57.025Z,4.31
2023-03-16T22:21:27.218Z,4.31
2023-03-16T22:23:58.384Z,4.39
2023-03-16T22:26:29.515Z,4.38
2023-03-16T22:28:57.153Z,4.41
2023-03-16T22:31:33.561Z,4.46
2023-03-16T22:34:03.745Z,4.42
2023-03-16T22:36:32.280Z,4.43
2023-03-16T22:39:05.844Z,4.39
2023-03-16T22:41:35.867Z,4.38
2023-03-16T22:44:02.957Z,4.40
2023-03-16T22:46:30.099Z,4.40
2023-03-16T22:48:57.179Z,4.45
2023-03-16T22:51:32.168Z,4.42
2023-03-16T22:54:04.690Z,4.51
2023-03-16T22:56:32.607Z,4.54
2023-03-16T22:59:03.140Z,4.55
2023-03-16T23:01:40.593Z,4.55
2023-03-16T23:04:33.840Z,4.55
2023-03-16T23:07:00.404Z,4.54
2023-03-16T23:09:27.142Z,4.52
2023-03-16T23:11:55.416Z,4.51
2023-03-16T23:14:25.893Z,4.54
2023-03-16T23:16:52.805Z,4.54
2023-03-16T23:19:25.757Z,4.43
2023-03-16T23:21:55.003Z,4.48
2023-03-16T23:24:25.584Z,4.42
2023-03-16T23:26:53.902Z,4.36
2023-03-16T23:29:21.729Z,4.36
2023-03-16T23:31:48.636Z,4.39
2023-03-16T23:34:19.188Z,4.28
2023-03-16T23:36:52.874Z,4.29
2023-03-16T23:39:19.680Z,4.18
2023-03-16T23:41:50.680Z,4.11
2023-03-16T23:44:28.620Z,4.15
2023-03-16T23:46:55.718Z,4.09
2023-03-16T23:49:34.440Z,4.10
2023-03-16T23:52:01.965Z,4.11
2023-03-16T23:54:40.700Z,4.01
2023-03-16T23:57:08.875Z,3.99
2023-03-16T23:59:41.325Z,3.99
